createdAt,value
2018-06-13T00:00:05.443Z,5.20
2018-06-13T00:01:05.416Z,5.30
2018-06-13T00:02:05.391Z,5.30
2018-06-13T00:03:05.369Z,5.70
2018-06-13T00:04:05.340Z,5.80
2018-06-13T00:05:05.312Z,5.90
2018-06-13T00:06:05.287Z,6.10
2018-06-13T00:07:05.261Z,6.90
2018-06-13T00:08:05.236Z,7.40
2018-06-13T00:09:05.218Z,6.20
2018-06-13T00:10:05.183Z,7.20
2018-06-13T00:11:05.156Z,6.60
2018-06-13T00:12:05.130Z,6.40
2018-06-13T00:13:05.106Z,6.60
2018-06-13T00:14:05.080Z,7.20
2018-06-13T00:15:05.062Z,6.80
2018-06-13T00:16:05.042Z,6.80
2018-06-13T00:17:05.000Z,6.70
2018-06-13T00:18:04.976Z,6.70
2018-06-13T00:19:04.948Z,7.50
2018-06-13T00:20:04.923Z,6.20
2018-06-13T00:21:04.900Z,5.90
2018-06-13T00:22:04.870Z,5.50
2018-06-13T00:23:04.844Z,6.00
2018-06-13T00:24:04.820Z,5.60
2018-06-13T00:25:04.794Z,5.20
2018-06-13T00:26:04.767Z,5.40
2018-06-13T00:27:04.740Z,5.10
2018-06-13T00:28:04.719Z,5.60
2018-06-13T00:29:04.689Z,5.10
2018-06-13T00:30:04.662Z,5.50
2018-06-13T00:31:04.648Z,4.70
2018-06-13T00:32:04.610Z,5.20
2018-06-13T00:33:04.588Z,5.00
2018-06-13T00:34:04.560Z,4.80
2018-06-13T00:35:04.533Z,5.10
2018-06-13T00:36:04.509Z,5.40
2018-06-13T00:37:04.544Z,5.30
2018-06-13T00:38:04.457Z,6.00
2018-06-13T00:39:04.432Z,5.70
2018-06-13T00:40:04.403Z,5.90
2018-06-13T00:41:04.375Z,5.40
2018-06-13T00:42:04.351Z,6.50
2018-06-13T00:43:04.327Z,5.90
2018-06-13T00:44:04.297Z,5.90
2018-06-13T00:45:04.270Z,6.50
2018-06-13T00:46:04.244Z,6.40
2018-06-13T00:47:04.291Z,6.30
2018-06-13T00:48:04.195Z,5.90
2018-06-13T00:49:04.165Z,6.30
2018-06-13T00:50:04.144Z,6.20
2018-06-13T00:51:04.113Z,6.40
2018-06-13T00:52:04.092Z,6.70
2018-06-13T00:53:04.060Z,6.10
2018-06-13T00:54:04.034Z,6.50
2018-06-13T00:55:04.012Z,6.10
2018-06-13T00:56:03.983Z,6.20
2018-06-13T00:57:03.956Z,5.80
2018-06-13T00:58:03.929Z,6.40
2018-06-13T00:59:03.903Z,5.60
2018-06-13T01:00:03.878Z,5.60
2018-06-13T01:01:03.850Z,6.10
2018-06-13T01:02:03.825Z,5.80
2018-06-13T01:03:03.803Z,5.80
2018-06-13T01:04:03.772Z,5.70
2018-06-13T01:05:03.746Z,6.10
2018-06-13T01:06:03.719Z,5.30
2018-06-13T01:07:03.693Z,5.60
2018-06-13T01:08:03.668Z,5.20
2018-06-13T01:09:03.640Z,5.40
2018-06-13T01:10:03.615Z,4.90
2018-06-13T01:11:03.591Z,5.50
2018-06-13T01:12:03.564Z,5.40
2018-06-13T01:13:03.552Z,5.10
2018-06-13T01:14:03.509Z,4.80
2018-06-13T01:15:03.489Z,4.70
2018-06-13T01:16:03.458Z,4.70
2018-06-13T01:17:03.432Z,4.60
2018-06-13T01:18:03.407Z,5.30
2018-06-13T01:19:03.379Z,4.50
2018-06-13T01:20:03.353Z,4.60
2018-06-13T01:21:03.333Z,5.20
2018-06-13T01:22:03.300Z,5.00
2018-06-13T01:23:03.274Z,4.80
2018-06-13T01:24:03.249Z,4.30
2018-06-13T01:25:03.221Z,4.70
2018-06-13T01:26:03.195Z,4.50
2018-06-13T01:27:03.169Z,4.80
2018-06-13T01:28:03.143Z,5.00
2018-06-13T01:29:03.117Z,4.30
2018-06-13T01:30:03.094Z,5.00
2018-06-13T01:31:03.065Z,5.50
2018-06-13T01:32:03.041Z,5.50
2018-06-13T01:33:03.054Z,5.30
2018-06-13T01:34:02.986Z,4.80
2018-06-13T01:35:02.960Z,5.00
2018-06-13T01:36:02.939Z,5.80
2018-06-13T01:37:02.907Z,5.50
2018-06-13T01:38:02.881Z,5.00
2018-06-13T01:39:02.856Z,5.00
2018-06-13T01:40:02.982Z,5.10
2018-06-13T01:41:02.802Z,5.70
2018-06-13T01:42:02.778Z,5.20
2018-06-13T01:43:02.752Z,5.90
2018-06-13T01:44:02.724Z,5.60
2018-06-13T01:45:02.705Z,5.40
2018-06-13T01:46:02.670Z,5.70
2018-06-13T01:47:02.654Z,5.70
2018-06-13T01:48:02.626Z,4.90
2018-06-13T01:49:02.592Z,5.60
2018-06-13T01:50:02.566Z,5.40
2018-06-13T01:51:02.540Z,5.10
2018-06-13T01:52:02.515Z,5.20
2018-06-13T01:53:02.487Z,5.60
2018-06-13T01:54:02.461Z,5.40
2018-06-13T01:55:02.441Z,5.20
2018-06-13T01:56:02.408Z,5.30
2018-06-13T01:57:02.381Z,5.40
2018-06-13T01:58:02.356Z,5.30
2018-06-13T01:59:02.330Z,5.10
2018-06-13T02:00:02.305Z,5.30
2018-06-13T02:01:02.279Z,5.50
2018-06-13T02:02:02.260Z,5.30
2018-06-13T02:03:02.227Z,5.50
2018-06-13T02:04:02.202Z,5.70
2018-06-13T02:05:02.178Z,6.10
2018-06-13T02:06:02.150Z,5.70
2018-06-13T02:07:02.174Z,5.50
2018-06-13T02:08:02.096Z,5.50
2018-06-13T02:09:02.068Z,5.70
2018-06-13T02:10:02.043Z,5.80
2018-06-13T02:11:02.017Z,6.10
2018-06-13T02:12:01.991Z,6.60
2018-06-13T02:13:01.965Z,6.80
2018-06-13T02:14:01.942Z,5.90
2018-06-13T02:15:01.928Z,6.50
2018-06-13T02:16:01.888Z,6.00
2018-06-13T02:17:01.859Z,6.20
2018-06-13T02:18:01.834Z,6.00
2018-06-13T02:19:01.808Z,6.60
2018-06-13T02:20:01.782Z,6.00
2018-06-13T02:21:01.756Z,6.70
2018-06-13T02:22:01.738Z,7.20
2018-06-13T02:23:01.703Z,6.40
2018-06-13T02:24:01.677Z,6.20
2018-06-13T02:25:01.654Z,6.60
2018-06-13T02:26:01.625Z,6.40
2018-06-13T02:27:01.599Z,6.10
2018-06-13T02:28:01.577Z,6.60
2018-06-13T02:29:01.548Z,5.80
2018-06-13T02:30:01.527Z,6.60
2018-06-13T02:31:01.500Z,6.10
2018-06-13T02:32:01.471Z,6.40
2018-06-13T02:33:01.446Z,6.10
2018-06-13T02:34:01.417Z,6.00
2018-06-13T02:35:01.391Z,6.10
2018-06-13T02:36:01.365Z,6.10
2018-06-13T02:37:01.338Z,6.10
2018-06-13T02:38:01.321Z,6.20
2018-06-13T02:39:01.338Z,5.60
2018-06-13T02:40:01.267Z,5.90
2018-06-13T02:41:01.236Z,6.20
2018-06-13T02:42:01.212Z,6.60
2018-06-13T02:43:01.186Z,6.40
2018-06-13T02:44:01.157Z,6.30
2018-06-13T02:45:01.132Z,6.30
2018-06-13T02:46:01.107Z,6.00
2018-06-13T02:47:01.078Z,6.00
2018-06-13T02:48:01.054Z,5.60
2018-06-13T02:49:01.027Z,5.70
2018-06-13T02:50:01.000Z,5.60
2018-06-13T02:51:00.975Z,5.50
2018-06-13T02:52:00.957Z,5.70
2018-06-13T02:53:00.922Z,5.50
2018-06-13T02:54:00.899Z,5.30
2018-06-13T02:55:00.870Z,5.40
2018-06-13T02:56:00.845Z,4.80
2018-06-13T02:57:00.819Z,4.80
2018-06-13T02:58:00.805Z,5.40
2018-06-13T02:59:00.769Z,4.90
2018-06-13T03:00:00.742Z,5.20
2018-06-13T03:01:00.714Z,5.00
2018-06-13T03:02:00.689Z,4.70
2018-06-13T03:03:00.665Z,4.90
2018-06-13T03:04:00.637Z,5.20
2018-06-13T03:05:00.616Z,5.10
2018-06-13T03:06:00.589Z,5.20
2018-06-13T03:07:00.561Z,5.90
2018-06-13T03:08:00.534Z,5.70
2018-06-13T03:09:00.508Z,5.80
2018-06-13T03:10:00.503Z,6.00
2018-06-13T03:11:00.459Z,6.10
2018-06-13T03:12:00.431Z,6.30
2018-06-13T03:13:00.410Z,5.50
2018-06-13T03:14:00.378Z,5.90
2018-06-13T03:15:00.353Z,5.70
2018-06-13T03:16:00.331Z,5.60
2018-06-13T03:17:00.300Z,5.90
2018-06-13T03:18:00.275Z,5.70
2018-06-13T03:19:00.249Z,5.80
2018-06-13T03:20:00.228Z,5.10
2018-06-13T03:21:00.198Z,6.00
2018-06-13T03:22:00.171Z,5.30
2018-06-13T03:23:00.145Z,5.10
2018-06-13T03:24:00.128Z,5.50
2018-06-13T03:25:00.095Z,5.50
2018-06-13T03:26:00.072Z,4.80
2018-06-13T03:27:00.051Z,4.80
2018-06-13T03:28:00.021Z,5.10
2018-06-13T03:28:59.990Z,5.50
2018-06-13T03:29:59.965Z,4.70
2018-06-13T03:30:59.941Z,5.50
2018-06-13T03:31:59.914Z,4.40
2018-06-13T03:32:59.888Z,4.60
2018-06-13T03:33:59.866Z,4.90
2018-06-13T03:34:59.836Z,4.80
2018-06-13T03:35:59.812Z,5.00
2018-06-13T03:36:59.787Z,4.90
2018-06-13T03:37:59.758Z,4.60
2018-06-13T03:38:59.736Z,4.30
2018-06-13T03:39:59.709Z,4.50
2018-06-13T03:40:59.712Z,4.30
2018-06-13T03:41:59.655Z,4.70
2018-06-13T03:42:59.630Z,4.40
2018-06-13T03:43:59.604Z,4.80
2018-06-13T03:44:59.583Z,4.20
2018-06-13T03:45:59.552Z,4.00
2018-06-13T03:46:59.526Z,4.70
2018-06-13T03:47:59.500Z,4.50
2018-06-13T03:48:59.474Z,4.00
2018-06-13T03:49:59.449Z,3.90
2018-06-13T03:50:59.423Z,3.90
2018-06-13T03:51:59.401Z,4.30
2018-06-13T03:52:59.372Z,3.90
2018-06-13T03:53:59.350Z,4.10
2018-06-13T03:54:59.321Z,3.90
2018-06-13T03:55:59.297Z,3.80
2018-06-13T03:56:59.271Z,4.20
2018-06-13T03:57:59.244Z,4.30
2018-06-13T03:58:59.218Z,3.80
2018-06-13T03:59:59.193Z,3.70
2018-06-13T04:00:59.179Z,3.80
2018-06-13T04:01:59.140Z,3.50
2018-06-13T04:02:59.116Z,3.90
2018-06-13T04:03:59.089Z,3.80
2018-06-13T04:04:59.063Z,3.20
2018-06-13T04:05:59.039Z,3.30
2018-06-13T04:06:59.014Z,3.90
2018-06-13T04:07:58.993Z,3.50
2018-06-13T04:08:58.960Z,3.70
2018-06-13T04:09:58.935Z,3.10
2018-06-13T04:10:58.913Z,3.50
2018-06-13T04:11:58.886Z,3.00
2018-06-13T04:12:58.852Z,3.00
2018-06-13T04:13:58.827Z,3.30
2018-06-13T04:14:58.809Z,3.30
2018-06-13T04:15:58.784Z,3.50
2018-06-13T04:16:58.756Z,2.90
2018-06-13T04:17:58.723Z,2.60
2018-06-13T04:18:58.909Z,3.40
2018-06-13T04:19:58.674Z,3.40
2018-06-13T04:20:58.651Z,3.20
2018-06-13T04:21:58.624Z,3.20
2018-06-13T04:22:58.595Z,3.40
2018-06-13T04:23:58.579Z,3.30
2018-06-13T04:24:58.543Z,3.50
2018-06-13T04:25:58.518Z,3.60
2018-06-13T04:26:58.494Z,3.80
2018-06-13T04:27:58.468Z,3.80
2018-06-13T04:28:58.441Z,3.40
2018-06-13T04:29:58.417Z,3.60
2018-06-13T04:30:58.391Z,3.20
2018-06-13T04:31:58.365Z,3.70
2018-06-13T04:32:58.340Z,3.50
2018-06-13T04:33:58.313Z,3.50
2018-06-13T04:34:58.290Z,3.20
2018-06-13T04:35:58.264Z,3.50
2018-06-13T04:36:58.237Z,3.30
2018-06-13T04:37:58.212Z,2.80
2018-06-13T04:38:58.187Z,3.30
2018-06-13T04:39:58.162Z,4.00
2018-06-13T04:40:58.136Z,3.50
2018-06-13T04:41:58.115Z,3.20
2018-06-13T04:42:58.086Z,3.30
2018-06-13T04:43:58.061Z,2.90
2018-06-13T04:44:58.034Z,3.40
2018-06-13T04:45:58.010Z,3.50
2018-06-13T04:46:57.985Z,3.00
2018-06-13T04:47:57.961Z,3.30
2018-06-13T04:48:57.932Z,3.50
2018-06-13T04:49:57.907Z,3.70
2018-06-13T04:50:57.882Z,3.30
2018-06-13T04:51:57.857Z,2.80
2018-06-13T04:52:57.831Z,3.00
2018-06-13T04:53:57.806Z,3.60
2018-06-13T04:54:57.781Z,3.40
2018-06-13T04:55:57.757Z,2.90
2018-06-13T04:56:57.730Z,3.00
2018-06-13T04:57:57.705Z,3.00
2018-06-13T04:58:57.689Z,3.50
2018-06-13T04:59:57.660Z,3.40
2018-06-13T05:00:57.630Z,3.10
2018-06-13T05:01:57.607Z,3.30
2018-06-13T05:02:57.786Z,3.90
2018-06-13T05:03:57.553Z,2.80
2018-06-13T05:04:57.527Z,3.60
2018-06-13T05:05:57.505Z,3.40
2018-06-13T05:06:57.481Z,2.90
2018-06-13T05:07:57.452Z,3.20
2018-06-13T05:08:57.430Z,2.90
2018-06-13T05:09:57.402Z,3.80
2018-06-13T05:10:57.376Z,3.50
2018-06-13T05:11:57.352Z,3.10
2018-06-13T05:12:57.329Z,3.60
2018-06-13T05:13:57.300Z,3.20
2018-06-13T05:14:57.275Z,3.20
2018-06-13T05:15:57.252Z,3.20
2018-06-13T05:16:57.224Z,3.60
2018-06-13T05:17:57.199Z,3.40
2018-06-13T05:18:57.174Z,3.20
2018-06-13T05:19:57.153Z,3.70
2018-06-13T05:20:57.131Z,3.50
2018-06-13T05:21:57.098Z,3.50
2018-06-13T05:22:57.075Z,3.50
2018-06-13T05:23:57.053Z,3.40
2018-06-13T05:24:57.022Z,3.30
2018-06-13T05:25:57.001Z,3.10
2018-06-13T05:26:56.974Z,3.60
2018-06-13T05:27:56.948Z,3.30
2018-06-13T05:28:56.923Z,3.80
2018-06-13T05:29:56.904Z,2.70
2018-06-13T05:30:56.876Z,3.00
2018-06-13T05:31:56.849Z,3.50
2018-06-13T05:32:56.838Z,3.20
2018-06-13T05:33:56.832Z,3.20
2018-06-13T05:34:56.778Z,3.40
2018-06-13T05:35:56.750Z,3.40
2018-06-13T05:36:56.723Z,2.90
2018-06-13T05:37:56.700Z,3.20
2018-06-13T05:38:56.675Z,3.10
2018-06-13T05:39:56.656Z,3.20
2018-06-13T05:40:56.628Z,3.00
2018-06-13T05:41:56.606Z,3.40
2018-06-13T05:42:56.583Z,3.30
2018-06-13T05:43:56.603Z,3.50
2018-06-13T05:44:56.537Z,3.20
2018-06-13T05:45:56.508Z,3.10
2018-06-13T05:46:56.480Z,2.70
2018-06-13T05:47:56.456Z,3.30
2018-06-13T05:48:56.430Z,3.20
2018-06-13T05:49:56.406Z,3.30
2018-06-13T05:50:56.383Z,3.00
2018-06-13T05:51:56.360Z,3.20
2018-06-13T05:52:56.334Z,3.50
2018-06-13T05:53:56.310Z,3.20
2018-06-13T05:54:56.339Z,3.60
2018-06-13T05:55:56.262Z,2.80
2018-06-13T05:56:56.236Z,3.10
2018-06-13T05:57:56.213Z,2.80
2018-06-13T05:58:56.188Z,3.40
2018-06-13T05:59:56.165Z,3.20
2018-06-13T06:00:56.141Z,3.40
2018-06-13T06:01:56.117Z,3.00
2018-06-13T06:02:56.094Z,3.60
2018-06-13T06:03:56.070Z,3.10
2018-06-13T06:04:56.045Z,3.40
2018-06-13T06:05:56.022Z,3.80
2018-06-13T06:06:55.998Z,3.00
2018-06-13T06:07:55.976Z,2.90
2018-06-13T06:08:55.953Z,2.90
2018-06-13T06:09:55.928Z,3.10
2018-06-13T06:10:55.904Z,2.90
2018-06-13T06:11:55.881Z,3.20
2018-06-13T06:12:55.856Z,3.10
2018-06-13T06:13:55.833Z,3.50
2018-06-13T06:14:55.810Z,3.00
2018-06-13T06:15:55.789Z,3.10
2018-06-13T06:16:55.763Z,3.30
2018-06-13T06:17:55.739Z,3.30
2018-06-13T06:18:55.716Z,3.10
2018-06-13T06:19:55.694Z,3.10
2018-06-13T06:20:55.669Z,2.60
2018-06-13T06:21:55.654Z,3.20
2018-06-13T06:22:55.622Z,2.80
2018-06-13T06:23:55.601Z,3.30
2018-06-13T06:24:55.576Z,3.10
2018-06-13T06:25:55.554Z,2.90
2018-06-13T06:26:55.537Z,2.80
2018-06-13T06:27:55.507Z,3.20
2018-06-13T06:28:55.482Z,3.10
2018-06-13T06:29:55.462Z,3.00
2018-06-13T06:30:55.437Z,3.20
2018-06-13T06:31:55.414Z,2.90
2018-06-13T06:32:55.390Z,2.80
2018-06-13T06:33:55.367Z,2.90
2018-06-13T06:34:55.348Z,3.00
2018-06-13T06:35:55.321Z,2.60
2018-06-13T06:36:55.310Z,2.90
2018-06-13T06:37:55.274Z,2.80
2018-06-13T06:38:55.252Z,2.90
2018-06-13T06:39:55.229Z,2.90
2018-06-13T06:40:55.206Z,2.80
2018-06-13T06:41:55.183Z,2.60
2018-06-13T06:42:55.160Z,3.00
2018-06-13T06:43:55.137Z,2.90
2018-06-13T06:44:55.316Z,3.00
2018-06-13T06:45:55.092Z,3.10
2018-06-13T06:46:55.070Z,2.70
2018-06-13T06:47:55.067Z,2.80
2018-06-13T06:48:55.030Z,3.30
2018-06-13T06:49:55.034Z,2.90
2018-06-13T06:50:54.988Z,2.90
2018-06-13T06:51:54.966Z,3.50
2018-06-13T06:52:54.945Z,3.10
2018-06-13T06:53:54.926Z,2.90
2018-06-13T06:54:54.904Z,3.00
2018-06-13T06:55:54.884Z,2.70
2018-06-13T06:56:54.863Z,2.90
2018-06-13T06:57:54.845Z,3.00
2018-06-13T06:58:54.824Z,2.80
2018-06-13T06:59:54.806Z,2.80
2018-06-13T07:00:54.784Z,3.20
2018-06-13T07:01:54.764Z,2.70
2018-06-13T07:02:54.745Z,2.60
2018-06-13T07:03:54.745Z,3.00
2018-06-13T07:04:54.704Z,3.20
2018-06-13T07:05:54.687Z,2.90
2018-06-13T07:06:54.665Z,3.20
2018-06-13T07:07:54.657Z,2.70
2018-06-13T07:08:54.628Z,3.10
2018-06-13T07:09:54.607Z,2.70
2018-06-13T07:10:54.588Z,2.90
2018-06-13T07:11:54.564Z,3.10
2018-06-13T07:12:54.544Z,2.70
2018-06-13T07:13:54.522Z,2.70
2018-06-13T07:14:54.501Z,2.20
2018-06-13T07:15:54.482Z,2.10
2018-06-13T07:16:54.459Z,2.70
2018-06-13T07:17:54.438Z,2.40
2018-06-13T07:18:54.455Z,2.70
2018-06-13T07:19:54.395Z,2.80
2018-06-13T07:20:54.374Z,2.90
2018-06-13T07:21:54.351Z,2.40
2018-06-13T07:22:54.332Z,2.60
2018-06-13T07:23:54.308Z,2.90
2018-06-13T07:24:54.287Z,2.70
2018-06-13T07:25:54.264Z,3.00
2018-06-13T07:26:54.242Z,2.80
2018-06-13T07:27:54.221Z,2.70
2018-06-13T07:28:54.196Z,2.50
2018-06-13T07:29:54.175Z,2.60
2018-06-13T07:30:54.184Z,2.70
2018-06-13T07:31:54.130Z,2.50
2018-06-13T07:32:54.108Z,2.80
2018-06-13T07:33:54.091Z,2.80
2018-06-13T07:34:54.066Z,2.50
2018-06-13T07:35:54.044Z,2.30
2018-06-13T07:36:54.017Z,2.50
2018-06-13T07:37:54.005Z,2.50
2018-06-13T07:38:53.974Z,2.70
2018-06-13T07:39:53.952Z,2.70
2018-06-13T07:40:53.928Z,2.60
2018-06-13T07:41:53.907Z,2.20
2018-06-13T07:42:53.903Z,2.30
2018-06-13T07:43:53.864Z,2.30
2018-06-13T07:44:53.841Z,2.60
2018-06-13T07:45:53.824Z,2.80
2018-06-13T07:46:53.800Z,2.70
2018-06-13T07:47:53.776Z,3.90
2018-06-13T07:48:53.753Z,2.60
2018-06-13T07:49:53.738Z,2.60
2018-06-13T07:50:53.718Z,2.80
2018-06-13T07:51:53.690Z,2.70
2018-06-13T07:52:53.673Z,2.60
2018-06-13T07:53:53.651Z,2.70
2018-06-13T07:54:53.626Z,2.80
2018-06-13T07:55:53.607Z,2.70
2018-06-13T07:56:53.584Z,2.70
2018-06-13T07:57:53.564Z,2.30
2018-06-13T07:58:53.545Z,2.70
2018-06-13T07:59:53.548Z,3.10
2018-06-13T08:00:53.504Z,2.30
2018-06-13T08:01:53.483Z,2.70
2018-06-13T08:02:53.462Z,2.60
2018-06-13T08:03:53.441Z,2.70
2018-06-13T08:04:53.426Z,2.40
2018-06-13T08:05:53.406Z,2.50
2018-06-13T08:06:53.381Z,2.40
2018-06-13T08:07:53.361Z,2.60
2018-06-13T08:08:53.397Z,3.00
2018-06-13T08:09:53.319Z,2.60
2018-06-13T08:10:53.299Z,2.50
2018-06-13T08:11:53.278Z,2.10
2018-06-13T08:12:53.258Z,2.30
2018-06-13T08:13:53.245Z,2.20
2018-06-13T08:14:53.217Z,2.40
2018-06-13T08:15:53.199Z,2.60
2018-06-13T08:16:53.208Z,2.50
2018-06-13T08:17:53.163Z,2.70
2018-06-13T08:18:53.137Z,2.50
2018-06-13T08:19:53.109Z,2.30
2018-06-13T08:20:53.090Z,2.50
2018-06-13T08:21:53.067Z,2.40
2018-06-13T08:22:53.049Z,2.50
2018-06-13T08:23:53.066Z,2.40
2018-06-13T08:24:53.005Z,2.60
2018-06-13T08:25:52.984Z,2.80
2018-06-13T08:26:52.963Z,2.50
2018-06-13T08:27:52.941Z,2.60
2018-06-13T08:28:52.922Z,2.30
2018-06-13T08:29:52.901Z,2.20
2018-06-13T08:30:52.878Z,2.60
2018-06-13T08:31:52.859Z,2.00
2018-06-13T08:32:52.837Z,2.50
2018-06-13T08:33:52.817Z,2.50
2018-06-13T08:34:52.798Z,2.80
2018-06-13T08:35:52.778Z,2.20
2018-06-13T08:36:52.756Z,2.30
2018-06-13T08:37:52.737Z,2.60
2018-06-13T08:38:52.728Z,2.40
2018-06-13T08:39:52.723Z,2.40
2018-06-13T08:40:52.683Z,2.40
2018-06-13T08:41:52.656Z,2.60
2018-06-13T08:42:52.638Z,2.60
2018-06-13T08:43:52.632Z,3.20
2018-06-13T08:44:52.598Z,2.50
2018-06-13T08:45:52.583Z,2.20
2018-06-13T08:46:52.558Z,2.80
2018-06-13T08:47:52.538Z,2.70
2018-06-13T08:48:52.517Z,2.70
2018-06-13T08:49:52.509Z,2.60
2018-06-13T08:50:52.477Z,2.70
2018-06-13T08:51:52.457Z,2.90
2018-06-13T08:52:52.436Z,3.40
2018-06-13T08:53:52.415Z,2.70
2018-06-13T08:54:52.396Z,2.50
2018-06-13T08:55:52.376Z,2.30
2018-06-13T08:56:52.358Z,2.90
2018-06-13T08:57:52.334Z,3.10
2018-06-13T08:58:52.313Z,2.80
2018-06-13T08:59:52.295Z,2.40
2018-06-13T09:00:52.271Z,2.60
2018-06-13T09:01:52.251Z,2.30
2018-06-13T09:02:52.234Z,2.20
2018-06-13T09:03:52.211Z,2.80
2018-06-13T09:04:52.190Z,2.50
2018-06-13T09:05:52.173Z,2.90
2018-06-13T09:06:52.152Z,2.90
2018-06-13T09:07:52.131Z,2.80
2018-06-13T09:08:52.113Z,2.80
2018-06-13T09:09:52.096Z,2.90
2018-06-13T09:10:52.077Z,2.80
2018-06-13T09:11:52.064Z,2.70
2018-06-13T09:12:52.029Z,2.50
2018-06-13T09:13:52.015Z,2.60
2018-06-13T09:14:52.026Z,2.90
2018-06-13T09:15:51.976Z,2.90
2018-06-13T09:16:51.961Z,2.70
2018-06-13T09:17:51.936Z,2.50
2018-06-13T09:18:51.918Z,3.10
2018-06-13T09:19:51.900Z,2.70
2018-06-13T09:20:51.874Z,2.50
2018-06-13T09:21:51.858Z,2.70
2018-06-13T09:22:51.857Z,2.50
2018-06-13T09:23:51.817Z,2.70
2018-06-13T09:24:51.797Z,2.60
2018-06-13T09:25:51.778Z,2.70
2018-06-13T09:26:51.760Z,2.50
2018-06-13T09:27:51.741Z,2.60
2018-06-13T09:28:51.720Z,2.80
2018-06-13T09:29:51.719Z,2.10
2018-06-13T09:30:51.683Z,2.10
2018-06-13T09:31:51.664Z,2.40
2018-06-13T09:32:51.644Z,2.70
2018-06-13T09:33:51.646Z,2.90
2018-06-13T09:34:51.607Z,2.60
2018-06-13T09:35:51.586Z,2.90
2018-06-13T09:36:51.566Z,3.10
2018-06-13T09:37:51.548Z,3.00
2018-06-13T09:38:51.531Z,3.60
2018-06-13T09:39:51.512Z,3.10
2018-06-13T09:40:51.488Z,2.80
2018-06-13T09:41:51.468Z,2.50
2018-06-13T09:42:51.453Z,2.60
2018-06-13T09:43:51.429Z,2.60
2018-06-13T09:44:51.407Z,2.50
2018-06-13T09:45:51.389Z,2.60
2018-06-13T09:46:51.369Z,2.60
2018-06-13T09:47:51.352Z,2.40
2018-06-13T09:48:51.329Z,2.80
2018-06-13T09:49:51.309Z,2.70
2018-06-13T09:50:51.289Z,3.30
2018-06-13T09:51:51.269Z,3.00
2018-06-13T09:52:51.249Z,2.90
2018-06-13T09:53:51.230Z,2.70
2018-06-13T09:54:51.264Z,2.60
2018-06-13T09:55:51.395Z,2.20
2018-06-13T09:56:51.237Z,2.70
2018-06-13T09:57:51.154Z,2.30
2018-06-13T09:58:51.135Z,2.60
2018-06-13T09:59:51.118Z,3.30
2018-06-13T10:00:51.098Z,3.80
2018-06-13T10:01:51.090Z,3.90
2018-06-13T10:02:51.068Z,2.80
2018-06-13T10:03:51.046Z,2.70
2018-06-13T10:04:51.030Z,2.30
2018-06-13T10:05:51.019Z,3.40
2018-06-13T10:06:50.994Z,2.50
2018-06-13T10:07:50.979Z,2.40
2018-06-13T10:08:50.961Z,2.70
2018-06-13T10:09:50.940Z,2.30
2018-06-13T10:10:50.932Z,2.70
2018-06-13T10:11:50.911Z,2.90
2018-06-13T10:12:50.885Z,3.10
2018-06-13T10:13:50.867Z,3.00
2018-06-13T10:14:50.916Z,2.40
2018-06-13T10:15:50.832Z,2.70
2018-06-13T10:16:50.811Z,2.30
2018-06-13T10:17:50.798Z,2.70
2018-06-13T10:18:50.774Z,2.50
2018-06-13T10:19:50.757Z,2.60
2018-06-13T10:20:50.745Z,2.80
2018-06-13T10:21:50.719Z,2.10
2018-06-13T10:22:50.710Z,2.30
2018-06-13T10:23:50.699Z,2.50
2018-06-13T10:24:50.659Z,3.00
2018-06-13T10:25:50.639Z,3.30
2018-06-13T10:26:50.620Z,3.00
2018-06-13T10:27:50.600Z,3.10
2018-06-13T10:28:50.583Z,3.40
2018-06-13T10:29:50.571Z,3.40
2018-06-13T10:30:50.543Z,2.60
2018-06-13T10:31:50.522Z,3.10
2018-06-13T10:32:50.497Z,3.00
2018-06-13T10:33:50.479Z,3.10
2018-06-13T10:34:50.461Z,3.00
2018-06-13T10:35:50.439Z,3.60
2018-06-13T10:36:50.422Z,2.70
2018-06-13T10:37:50.403Z,2.50
2018-06-13T10:38:50.381Z,2.60
2018-06-13T10:39:50.363Z,3.00
2018-06-13T10:40:50.335Z,2.30
2018-06-13T10:41:50.316Z,2.70
2018-06-13T10:42:50.295Z,2.80
2018-06-13T10:43:50.275Z,2.80
2018-06-13T10:44:50.253Z,3.00
2018-06-13T10:45:50.233Z,2.80
2018-06-13T10:46:50.221Z,3.10
2018-06-13T10:47:50.192Z,2.70
2018-06-13T10:48:50.174Z,2.50
2018-06-13T10:49:50.192Z,2.70
2018-06-13T10:50:50.130Z,2.90
2018-06-13T10:51:50.111Z,2.80
2018-06-13T10:52:50.090Z,2.90
2018-06-13T10:53:50.077Z,2.90
2018-06-13T10:54:50.049Z,3.00
2018-06-13T10:55:50.030Z,3.00
2018-06-13T10:56:50.009Z,2.80
2018-06-13T10:57:49.990Z,2.40
2018-06-13T10:58:49.975Z,2.50
2018-06-13T10:59:49.952Z,2.90
2018-06-13T11:00:49.945Z,2.80
2018-06-13T11:01:49.916Z,3.20
2018-06-13T11:02:49.913Z,2.70
2018-06-13T11:03:49.874Z,2.50
2018-06-13T11:04:49.937Z,3.20
2018-06-13T11:05:49.839Z,2.70
2018-06-13T11:06:49.818Z,2.60
2018-06-13T11:07:49.805Z,2.70
2018-06-13T11:08:49.779Z,3.00
2018-06-13T11:09:49.759Z,3.00
2018-06-13T11:10:49.742Z,2.90
2018-06-13T11:11:49.722Z,3.10
2018-06-13T11:12:49.714Z,2.90
2018-06-13T11:13:49.681Z,3.90
2018-06-13T11:14:49.666Z,3.20
2018-06-13T11:15:49.642Z,3.10
2018-06-13T11:16:49.621Z,3.40
2018-06-13T11:17:49.602Z,3.00
2018-06-13T11:18:49.586Z,3.10
2018-06-13T11:19:49.566Z,3.50
2018-06-13T11:20:49.543Z,3.30
2018-06-13T11:21:49.523Z,3.40
2018-06-13T11:22:49.538Z,3.00
2018-06-13T11:23:49.483Z,3.50
2018-06-13T11:24:49.463Z,3.40
2018-06-13T11:25:49.445Z,2.70
2018-06-13T11:26:49.424Z,3.30
2018-06-13T11:27:49.404Z,3.40
2018-06-13T11:28:49.387Z,3.50
2018-06-13T11:29:49.361Z,3.10
2018-06-13T11:30:49.343Z,2.90
2018-06-13T11:31:49.323Z,3.50
2018-06-13T11:32:49.301Z,3.50
2018-06-13T11:33:49.281Z,3.30
2018-06-13T11:34:49.260Z,3.20
2018-06-13T11:35:49.242Z,3.50
2018-06-13T11:36:49.222Z,3.50
2018-06-13T11:37:49.201Z,3.20
2018-06-13T11:38:49.183Z,3.30
2018-06-13T11:39:49.161Z,3.50
2018-06-13T11:40:49.140Z,3.70
2018-06-13T11:41:49.123Z,3.40
2018-06-13T11:42:49.106Z,3.30
2018-06-13T11:43:49.082Z,3.10
2018-06-13T11:44:49.066Z,3.00
2018-06-13T11:45:49.048Z,3.40
2018-06-13T11:46:49.023Z,3.10
2018-06-13T11:47:49.007Z,3.30
2018-06-13T11:48:48.982Z,3.90
2018-06-13T11:49:48.963Z,3.70
2018-06-13T11:50:48.942Z,3.80
2018-06-13T11:51:48.935Z,3.60
2018-06-13T11:52:48.905Z,4.40
2018-06-13T11:53:48.885Z,3.70
2018-06-13T11:54:48.861Z,4.00
2018-06-13T11:55:48.841Z,3.80
2018-06-13T11:56:48.820Z,4.00
2018-06-13T11:57:48.799Z,3.60
2018-06-13T11:58:48.785Z,3.70
2018-06-13T11:59:48.785Z,3.40
2018-06-13T12:00:48.737Z,3.70
2018-06-13T12:01:48.755Z,3.80
2018-06-13T12:02:48.695Z,3.70
2018-06-13T12:03:48.685Z,4.10
2018-06-13T12:04:48.652Z,4.10
2018-06-13T12:05:48.637Z,3.70
2018-06-13T12:06:48.610Z,3.20
2018-06-13T12:07:48.605Z,3.50
2018-06-13T12:08:48.567Z,3.30
2018-06-13T12:09:48.546Z,3.20
2018-06-13T12:10:48.525Z,3.80
2018-06-13T12:11:48.503Z,3.80
2018-06-13T12:12:48.482Z,3.80
2018-06-13T12:13:48.459Z,3.10
2018-06-13T12:14:48.437Z,3.40
2018-06-13T12:15:48.426Z,3.70
2018-06-13T12:16:48.450Z,5.20
2018-06-13T12:17:48.372Z,4.00
2018-06-13T12:18:48.351Z,3.80
2018-06-13T12:19:48.329Z,3.90
2018-06-13T12:20:48.306Z,3.80
2018-06-13T12:21:48.287Z,3.70
2018-06-13T12:22:48.263Z,3.70
2018-06-13T12:23:48.241Z,3.30
2018-06-13T12:24:48.219Z,12.10
2018-06-13T12:25:48.197Z,2.90
2018-06-13T12:26:48.177Z,3.50
2018-06-13T12:27:48.157Z,3.20
2018-06-13T12:28:48.136Z,3.40
2018-06-13T12:29:48.126Z,3.10
2018-06-13T12:30:48.090Z,2.80
2018-06-13T12:31:48.072Z,3.00
2018-06-13T12:32:48.047Z,3.40
2018-06-13T12:33:48.025Z,3.30
2018-06-13T12:34:48.011Z,2.90
2018-06-13T12:35:47.984Z,3.00
2018-06-13T12:36:47.960Z,4.00
2018-06-13T12:37:47.938Z,3.90
2018-06-13T12:38:47.917Z,4.10
2018-06-13T12:39:47.894Z,3.80
2018-06-13T12:40:47.871Z,4.40
2018-06-13T12:41:47.850Z,3.70
2018-06-13T12:42:47.828Z,2.60
2018-06-13T12:43:47.806Z,3.80
2018-06-13T12:44:47.784Z,4.10
2018-06-13T12:45:47.762Z,3.60
2018-06-13T12:46:47.741Z,3.60
2018-06-13T12:47:47.723Z,3.40
2018-06-13T12:48:47.697Z,2.90
2018-06-13T12:49:47.698Z,3.00
2018-06-13T12:50:47.719Z,3.50
2018-06-13T12:51:47.637Z,3.40
2018-06-13T12:52:47.612Z,3.80
2018-06-13T12:53:47.596Z,3.30
2018-06-13T12:54:47.571Z,2.90
2018-06-13T12:55:47.550Z,2.80
2018-06-13T12:56:47.530Z,3.90
2018-06-13T12:57:47.511Z,2.80
2018-06-13T12:58:47.671Z,3.50
2018-06-13T12:59:47.465Z,3.00
2018-06-13T13:00:47.449Z,3.50
2018-06-13T13:01:47.423Z,3.00
2018-06-13T13:02:47.405Z,2.90
2018-06-13T13:03:47.383Z,3.50
2018-06-13T13:04:47.384Z,3.20
2018-06-13T13:05:47.363Z,3.40
2018-06-13T13:06:47.331Z,3.00
2018-06-13T13:07:47.306Z,3.10
2018-06-13T13:08:47.283Z,2.70
2018-06-13T13:09:47.267Z,3.10
2018-06-13T13:10:47.251Z,3.50
2018-06-13T13:11:47.215Z,3.20
2018-06-13T13:12:47.195Z,3.10
2018-06-13T13:13:47.178Z,3.80
2018-06-13T13:14:47.159Z,3.50
2018-06-13T13:15:47.135Z,3.40
2018-06-13T13:16:47.113Z,4.00
2018-06-13T13:17:47.099Z,3.90